DGAA

Kotoka International Airport

Accra, Ghana
METAR DGAA 152000Z 22011KT 9999 FEW013 26/23 Q1014 NOSIG
Observed Flight Rules
Jul-15 @ 20:00 UTC (56 minutes ago) Visual Flight Rules
Wind Visibility Clouds
220° at 11 knots 10,000+ meters
  • Few at 1,300' AGL
Temperatures Readings
Current 26°C / 79°F
Dewpoint 23°C / 73°F
Humidity 84%
Altimeter 29.94" Hg
Pressure 1014 hPa
Elevation 69
METAR DGAA 152000Z 22011KT 9999 FEW013 26/23 Q1014 NOSIG
Observed Flight Rules
Jul-15 @ 20:00 UTC
(56 minutes ago)
VFR
Wind Visibility
220° at 11 knots 10,000+ meters
Clouds
  • Few at 1,300' AGL
Temperature Dewpoint
26°C / 79°F 23°C / 73°F
Humidity Altimeter Pressure
84% 29.94" Hg 1014 hPa